sensor_id;sensor_type;location;lat;lon;timestamp;P1;durP1;ratioP1;P2;durP2;ratioP2
17949;SDS011;9100;48.700;9.316;2023-03-03T00:00:37;33.3;;;21.7;;
17949;SDS011;9100;48.700;9.316;2023-03-03T00:01:36;33.3;;;21.7;;
17949;SDS011;9100;48.700;9.316;2023-03-03T00:02:36;33.3;;;21.7;;
17949;SDS011;9100;48.700;9.316;2023-03-03T00:03:06;31.6;;;21.6;;
17949;SDS011;9100;48.700;9.316;2023-03-03T00:03:36;31.6;;;21.6;;
17949;SDS011;9100;48.700;9.316;2023-03-03T00:04:37;31.6;;;21.6;;
17949;SDS011;9100;48.700;9.316;2023-03-03T00:05:37;31.6;;;21.6;;
17949;SDS011;9100;48.700;9.316;2023-03-03T00:06:36;31.6;;;21.6;;
17949;SDS011;9100;48.700;9.316;2023-03-03T00:07:36;31.6;;;21.6;;
17949;SDS011;9100;48.700;9.316;2023-03-03T00:08:05;36.6;;;20.3;;
17949;SDS011;9100;48.700;9.316;2023-03-03T00:08:37;36.6;;;20.3;;
17949;SDS011;9100;48.700;9.316;2023-03-03T00:09:37;36.6;;;20.3;;
17949;SDS011;9100;48.700;9.316;2023-03-03T00:10:37;36.6;;;20.3;;
17949;SDS011;9100;48.700;9.316;2023-03-03T00:11:37;36.6;;;20.3;;
17949;SDS011;9100;48.700;9.316;2023-03-03T00:12:39;36.6;;;20.3;;
17949;SDS011;9100;48.700;9.316;2023-03-03T00:13:10;28.1;;;19.9;;
17949;SDS011;9100;48.700;9.316;2023-03-03T00:13:39;28.1;;;19.9;;
17949;SDS011;9100;48.700;9.316;2023-03-03T00:14:36;28.1;;;19.9;;
17949;SDS011;9100;48.700;9.316;2023-03-03T00:15:36;28.1;;;19.9;;
17949;SDS011;9100;48.700;9.316;2023-03-03T00:16:37;28.1;;;19.9;;
17949;SDS011;9100;48.700;9.316;2023-03-03T00:17:36;28.1;;;19.9;;
17949;SDS011;9100;48.700;9.316;2023-03-03T00:18:09;29.3;;;20.2;;
17949;SDS011;9100;48.700;9.316;2023-03-03T00:18:37;29.3;;;20.2;;
17949;SDS011;9100;48.700;9.316;2023-03-03T00:19:37;29.3;;;20.2;;
17949;SDS011;9100;48.700;9.316;2023-03-03T00:20:37;29.3;;;20.2;;
17949;SDS011;9100;48.700;9.316;2023-03-03T00:21:39;29.3;;;20.2;;
17949;SDS011;9100;48.700;9.316;2023-03-03T00:22:37;29.3;;;20.2;;
17949;SDS011;9100;48.700;9.316;2023-03-03T00:23:12;28.2;;;21;;
17949;SDS011;9100;48.700;9.316;2023-03-03T00:23:37;28.2;;;21;;
17949;SDS011;9100;48.700;9.316;2023-03-03T00:24:36;28.2;;;21;;
17949;SDS011;9100;48.700;9.316;2023-03-03T00:25:36;28.2;;;21;;
17949;SDS011;9100;48.700;9.316;2023-03-03T00:26:37;28.2;;;21;;
17949;SDS011;9100;48.700;9.316;2023-03-03T00:27:36;28.2;;;21;;
17949;SDS011;9100;48.700;9.316;2023-03-03T00:28:05;30.1;;;21.2;;
17949;SDS011;9100;48.700;9.316;2023-03-03T00:28:40;30.1;;;21.2;;
17949;SDS011;9100;48.700;9.316;2023-03-03T00:29:38;30.1;;;21.2;;
17949;SDS011;9100;48.700;9.316;2023-03-03T00:30:36;30.1;;;21.2;;
17949;SDS011;9100;48.700;9.316;2023-03-03T00:31:36;30.1;;;21.2;;
17949;SDS011;9100;48.700;9.316;2023-03-03T00:32:37;30.1;;;21.2;;
17949;SDS011;9100;48.700;9.316;2023-03-03T00:33:06;29.9;;;20.9;;
17949;SDS011;9100;48.700;9.316;2023-03-03T00:33:39;29.9;;;20.9;;
17949;SDS011;9100;48.700;9.316;2023-03-03T00:34:37;29.9;;;20.9;;
17949;SDS011;9100;48.700;9.316;2023-03-03T00:35:37;29.9;;;20.9;;
17949;SDS011;9100;48.700;9.316;2023-03-03T00:36:37;29.9;;;20.9;;
17949;SDS011;9100;48.700;9.316;2023-03-03T00:37:37;29.9;;;20.9;;
17949;SDS011;9100;48.700;9.316;2023-03-03T00:38:09;30.1;;;19.9;;
17949;SDS011;9100;48.700;9.316;2023-03-03T00:38:36;30.1;;;19.9;;
17949;SDS011;9100;48.700;9.316;2023-03-03T00:39:37;30.1;;;19.9;;
17949;SDS011;9100;48.700;9.316;2023-03-03T00:40:37;30.1;;;19.9;;
17949;SDS011;9100;48.700;9.316;2023-03-03T00:41:37;30.1;;;19.9;;
17949;SDS011;9100;48.700;9.316;2023-03-03T00:42:36;30.1;;;19.9;;
17949;SDS011;9100;48.700;9.316;2023-03-03T00:43:11;30.2;;;19.2;;
17949;SDS011;9100;48.700;9.316;2023-03-03T00:43:37;30.2;;;19.2;;
17949;SDS011;9100;48.700;9.316;2023-03-03T00:44:39;30.2;;;19.2;;
17949;SDS011;9100;48.700;9.316;2023-03-03T00:45:37;30.2;;;19.2;;
17949;SDS011;9100;48.700;9.316;2023-03-03T00:46:37;30.2;;;19.2;;
17949;SDS011;9100;48.700;9.316;2023-03-03T00:47:37;30.2;;;19.2;;
17949;SDS011;9100;48.700;9.316;2023-03-03T00:48:10;29.2;;;20.4;;
17949;SDS011;9100;48.700;9.316;2023-03-03T00:48:41;29.2;;;20.4;;
17949;SDS011;9100;48.700;9.316;2023-03-03T00:49:37;29.2;;;20.4;;
17949;SDS011;9100;48.700;9.316;2023-03-03T00:50:37;29.2;;;20.4;;
17949;SDS011;9100;48.700;9.316;2023-03-03T00:51:37;29.2;;;20.4;;
17949;SDS011;9100;48.700;9.316;2023-03-03T00:52:37;29.2;;;20.4;;
17949;SDS011;9100;48.700;9.316;2023-03-03T00:53:06;26.3;;;19.4;;
17949;SDS011;9100;48.700;9.316;2023-03-03T00:53:37;26.3;;;19.4;;
17949;SDS011;9100;48.700;9.316;2023-03-03T00:54:37;26.3;;;19.4;;
17949;SDS011;9100;48.700;9.316;2023-03-03T00:55:36;26.3;;;19.4;;
17949;SDS011;9100;48.700;9.316;2023-03-03T00:56:37;26.3;;;19.4;;
17949;SDS011;9100;48.700;9.316;2023-03-03T00:57:36;26.3;;;19.4;;
17949;SDS011;9100;48.700;9.316;2023-03-03T00:58:05;33.3;;;20.9;;
17949;SDS011;9100;48.700;9.316;2023-03-03T00:58:37;33.3;;;20.9;;
17949;SDS011;9100;48.700;9.316;2023-03-03T00:59:37;33.3;;;20.9;;
17949;SDS011;9100;48.700;9.316;2023-03-03T01:00:37;33.3;;;20.9;;
17949;SDS011;9100;48.700;9.316;2023-03-03T01:01:37;33.3;;;20.9;;
17949;SDS011;9100;48.700;9.316;2023-03-03T01:02:37;33.3;;;20.9;;
17949;SDS011;9100;48.700;9.316;2023-03-03T01:03:06;24.8;;;19.5;;
17949;SDS011;9100;48.700;9.316;2023-03-03T01:03:37;24.8;;;19.5;;
17949;SDS011;9100;48.700;9.316;2023-03-03T01:04:37;24.8;;;19.5;;
17949;SDS011;9100;48.700;9.316;2023-03-03T01:05:37;24.8;;;19.5;;
17949;SDS011;9100;48.700;9.316;2023-03-03T01:06:37;24.8;;;19.5;;
17949;SDS011;9100;48.700;9.316;2023-03-03T01:07:37;24.8;;;19.5;;
17949;SDS011;9100;48.700;9.316;2023-03-03T01:08:05;29.8;;;20.9;;
17949;SDS011;9100;48.700;9.316;2023-03-03T01:08:37;29.8;;;20.9;;
17949;SDS011;9100;48.700;9.316;2023-03-03T01:09:36;29.8;;;20.9;;
17949;SDS011;9100;48.700;9.316;2023-03-03T01:10:38;29.8;;;20.9;;
17949;SDS011;9100;48.700;9.316;2023-03-03T01:11:37;29.8;;;20.9;;
17949;SDS011;9100;48.700;9.316;2023-03-03T01:12:37;29.8;;;20.9;;
17949;SDS011;9100;48.700;9.316;2023-03-03T01:13:05;29.3;;;21.2;;
17949;SDS011;9100;48.700;9.316;2023-03-03T01:13:37;29.3;;;21.2;;
17949;SDS011;9100;48.700;9.316;2023-03-03T01:14:37;29.3;;;21.2;;
17949;SDS011;9100;48.700;9.316;2023-03-03T01:15:37;29.3;;;21.2;;
17949;SDS011;9100;48.700;9.316;2023-03-03T01:16:38;29.3;;;21.2;;
17949;SDS011;9100;48.700;9.316;2023-03-03T01:17:37;29.3;;;21.2;;
17949;SDS011;9100;48.700;9.316;2023-03-03T01:18:05;31.3;;;20.7;;
17949;SDS011;9100;48.700;9.316;2023-03-03T01:18:37;31.3;;;20.7;;
17949;SDS011;9100;48.700;9.316;2023-03-03T01:19:37;31.3;;;20.7;;
17949;SDS011;9100;48.700;9.316;2023-03-03T01:20:37;31.3;;;20.7;;
17949;SDS011;9100;48.700;9.316;2023-03-03T01:21:37;31.3;;;20.7;;
17949;SDS011;9100;48.700;9.316;2023-03-03T01:22:36;31.3;;;20.7;;
17949;SDS011;9100;48.700;9.316;2023-03-03T01:23:05;35.8;;;20.5;;
17949;SDS011;9100;48.700;9.316;2023-03-03T01:23:37;35.8;;;20.5;;
17949;SDS011;9100;48.700;9.316;2023-03-03T01:24:37;35.8;;;20.5;;
17949;SDS011;9100;48.700;9.316;2023-03-03T01:25:37;35.8;;;20.5;;
17949;SDS011;9100;48.700;9.316;2023-03-03T01:26:36;35.8;;;20.5;;
17949;SDS011;9100;48.700;9.316;2023-03-03T01:27:37;35.8;;;20.5;;
17949;SDS011;9100;48.700;9.316;2023-03-03T01:28:05;28.4;;;19.9;;
17949;SDS011;9100;48.700;9.316;2023-03-03T01:28:37;28.4;;;19.9;;
17949;SDS011;9100;48.700;9.316;2023-03-03T01:29:37;28.4;;;19.9;;
17949;SDS011;9100;48.700;9.316;2023-03-03T01:30:37;28.4;;;19.9;;
17949;SDS011;9100;48.700;9.316;2023-03-03T01:31:37;28.4;;;19.9;;
17949;SDS011;9100;48.700;9.316;2023-03-03T01:32:37;28.4;;;19.9;;
17949;SDS011;9100;48.700;9.316;2023-03-03T01:33:05;24.8;;;18.1;;
17949;SDS011;9100;48.700;9.316;2023-03-03T01:33:36;24.8;;;18.1;;
17949;SDS011;9100;48.700;9.316;2023-03-03T01:34:37;24.8;;;18.1;;
17949;SDS011;9100;48.700;9.316;2023-03-03T01:35:37;24.8;;;18.1;;
17949;SDS011;9100;48.700;9.316;2023-03-03T01:36:37;24.8;;;18.1;;
17949;SDS011;9100;48.700;9.316;2023-03-03T01:37:37;24.8;;;18.1;;
17949;SDS011;9100;48.700;9.316;2023-03-03T01:38:05;26.5;;;18.6;;
17949;SDS011;9100;48.700;9.316;2023-03-03T01:38:37;26.5;;;18.6;;
17949;SDS011;9100;48.700;9.316;2023-03-03T01:39:36;26.5;;;18.6;;
17949;SDS011;9100;48.700;9.316;2023-03-03T01:40:37;26.5;;;18.6;;
17949;SDS011;9100;48.700;9.316;2023-03-03T01:41:37;26.5;;;18.6;;
17949;SDS011;9100;48.700;9.316;2023-03-03T01:42:36;26.5;;;18.6;;
17949;SDS011;9100;48.700;9.316;2023-03-03T01:43:05;28.2;;;19.2;;
17949;SDS011;9100;48.700;9.316;2023-03-03T01:43:41;28.2;;;19.2;;
17949;SDS011;9100;48.700;9.316;2023-03-03T01:44:37;28.2;;;19.2;;
17949;SDS011;9100;48.700;9.316;2023-03-03T01:45:41;28.2;;;19.2;;
17949;SDS011;9100;48.700;9.316;2023-03-03T01:46:43;28.2;;;19.2;;
17949;SDS011;9100;48.700;9.316;2023-03-03T01:47:37;28.2;;;19.2;;
17949;SDS011;9100;48.700;9.316;2023-03-03T01:48:06;28.1;;;19.8;;
17949;SDS011;9100;48.700;9.316;2023-03-03T01:48:37;28.1;;;19.8;;
17949;SDS011;9100;48.700;9.316;2023-03-03T01:49:38;28.1;;;19.8;;
17949;SDS011;9100;48.700;9.316;2023-03-03T01:50:38;28.1;;;19.8;;
17949;SDS011;9100;48.700;9.316;2023-03-03T01:51:38;28.1;;;19.8;;
17949;SDS011;9100;48.700;9.316;2023-03-03T01:52:37;28.1;;;19.8;;
17949;SDS011;9100;48.700;9.316;2023-03-03T01:53:05;31.9;;;19.2;;
17949;SDS011;9100;48.700;9.316;2023-03-03T01:53:38;31.9;;;19.2;;
17949;SDS011;9100;48.700;9.316;2023-03-03T01:54:38;31.9;;;19.2;;
17949;SDS011;9100;48.700;9.316;2023-03-03T01:55:38;31.9;;;19.2;;
17949;SDS011;9100;48.700;9.316;2023-03-03T01:56:37;31.9;;;19.2;;
17949;SDS011;9100;48.700;9.316;2023-03-03T01:57:37;31.9;;;19.2;;
17949;SDS011;9100;48.700;9.316;2023-03-03T01:58:06;30.6;;;20;;
17949;SDS011;9100;48.700;9.316;2023-03-03T01:58:37;30.6;;;20;;
17949;SDS011;9100;48.700;9.316;2023-03-03T01:59:39;30.6;;;20;;
17949;SDS011;9100;48.700;9.316;2023-03-03T02:00:37;30.6;;;20;;
17949;SDS011;9100;48.700;9.316;2023-03-03T02:01:36;30.6;;;20;;
17949;SDS011;9100;48.700;9.316;2023-03-03T02:02:37;30.6;;;20;;
17949;SDS011;9100;48.700;9.316;2023-03-03T02:03:05;27.5;;;19.7;;
17949;SDS011;9100;48.700;9.316;2023-03-03T02:03:37;27.5;;;19.7;;
17949;SDS011;9100;48.700;9.316;2023-03-03T02:04:37;27.5;;;19.7;;
17949;SDS011;9100;48.700;9.316;2023-03-03T02:05:37;27.5;;;19.7;;
17949;SDS011;9100;48.700;9.316;2023-03-03T02:06:37;27.5;;;19.7;;
17949;SDS011;9100;48.700;9.316;2023-03-03T02:07:36;27.5;;;19.7;;
17949;SDS011;9100;48.700;9.316;2023-03-03T02:08:06;33.2;;;20;;
17949;SDS011;9100;48.700;9.316;2023-03-03T02:08:38;33.2;;;20;;
17949;SDS011;9100;48.700;9.316;2023-03-03T02:09:40;33.2;;;20;;
17949;SDS011;9100;48.700;9.316;2023-03-03T02:10:37;33.2;;;20;;
17949;SDS011;9100;48.700;9.316;2023-03-03T02:11:37;33.2;;;20;;
17949;SDS011;9100;48.700;9.316;2023-03-03T02:12:37;33.2;;;20;;
17949;SDS011;9100;48.700;9.316;2023-03-03T02:13:05;28.4;;;19.7;;
17949;SDS011;9100;48.700;9.316;2023-03-03T02:13:37;28.4;;;19.7;;
17949;SDS011;9100;48.700;9.316;2023-03-03T02:14:37;28.4;;;19.7;;
17949;SDS011;9100;48.700;9.316;2023-03-03T02:15:37;28.4;;;19.7;;
17949;SDS011;9100;48.700;9.316;2023-03-03T02:16:37;28.4;;;19.7;;
17949;SDS011;9100;48.700;9.316;2023-03-03T02:17:37;28.4;;;19.7;;
17949;SDS011;9100;48.700;9.316;2023-03-03T02:18:06;24.4;;;18.6;;
17949;SDS011;9100;48.700;9.316;2023-03-03T02:18:37;24.4;;;18.6;;
17949;SDS011;9100;48.700;9.316;2023-03-03T02:19:39;24.4;;;18.6;;
17949;SDS011;9100;48.700;9.316;2023-03-03T02:20:41;24.4;;;18.6;;
17949;SDS011;9100;48.700;9.316;2023-03-03T02:21:37;24.4;;;18.6;;
17949;SDS011;9100;48.700;9.316;2023-03-03T02:22:39;24.4;;;18.6;;
17949;SDS011;9100;48.700;9.316;2023-03-03T02:23:07;31;;;19.8;;
17949;SDS011;9100;48.700;9.316;2023-03-03T02:23:37;31;;;19.8;;
17949;SDS011;9100;48.700;9.316;2023-03-03T02:24:37;31;;;19.8;;
17949;SDS011;9100;48.700;9.316;2023-03-03T02:25:40;31;;;19.8;;
17949;SDS011;9100;48.700;9.316;2023-03-03T02:26:38;31;;;19.8;;
17949;SDS011;9100;48.700;9.316;2023-03-03T02:27:37;31;;;19.8;;
17949;SDS011;9100;48.700;9.316;2023-03-03T02:28:05;27.7;;;18.5;;
17949;SDS011;9100;48.700;9.316;2023-03-03T02:28:38;27.7;;;18.5;;
17949;SDS011;9100;48.700;9.316;2023-03-03T02:29:37;27.7;;;18.5;;
17949;SDS011;9100;48.700;9.316;2023-03-03T02:30:37;27.7;;;18.5;;
17949;SDS011;9100;48.700;9.316;2023-03-03T02:31:37;27.7;;;18.5;;
17949;SDS011;9100;48.700;9.316;2023-03-03T02:32:37;27.7;;;18.5;;
17949;SDS011;9100;48.700;9.316;2023-03-03T02:33:05;31.4;;;20.3;;
17949;SDS011;9100;48.700;9.316;2023-03-03T02:33:37;31.4;;;20.3;;
17949;SDS011;9100;48.700;9.316;2023-03-03T02:34:52;31.4;;;20.3;;
17949;SDS011;9100;48.700;9.316;2023-03-03T02:35:38;31.4;;;20.3;;
17949;SDS011;9100;48.700;9.316;2023-03-03T02:36:38;31.4;;;20.3;;
17949;SDS011;9100;48.700;9.316;2023-03-03T02:37:36;31.4;;;20.3;;
17949;SDS011;9100;48.700;9.316;2023-03-03T02:38:09;28.2;;;19.7;;
17949;SDS011;9100;48.700;9.316;2023-03-03T02:38:38;28.2;;;19.7;;
17949;SDS011;9100;48.700;9.316;2023-03-03T02:39:37;28.2;;;19.7;;
17949;SDS011;9100;48.700;9.316;2023-03-03T02:40:38;28.2;;;19.7;;
17949;SDS011;9100;48.700;9.316;2023-03-03T02:41:38;28.2;;;19.7;;
17949;SDS011;9100;48.700;9.316;2023-03-03T02:42:37;28.2;;;19.7;;
17949;SDS011;9100;48.700;9.316;2023-03-03T02:43:05;29.6;;;20.7;;
17949;SDS011;9100;48.700;9.316;2023-03-03T02:43:38;29.6;;;20.7;;
17949;SDS011;9100;48.700;9.316;2023-03-03T02:44:37;29.6;;;20.7;;
17949;SDS011;9100;48.700;9.316;2023-03-03T02:45:41;29.6;;;20.7;;
17949;SDS011;9100;48.700;9.316;2023-03-03T02:46:38;29.6;;;20.7;;
17949;SDS011;9100;48.700;9.316;2023-03-03T02:47:37;29.6;;;20.7;;
17949;SDS011;9100;48.700;9.316;2023-03-03T02:48:05;26.2;;;18.3;;
17949;SDS011;9100;48.700;9.316;2023-03-03T02:48:37;26.2;;;18.3;;
17949;SDS011;9100;48.700;9.316;2023-03-03T02:49:37;26.2;;;18.3;;
17949;SDS011;9100;48.700;9.316;2023-03-03T02:50:37;26.2;;;18.3;;
17949;SDS011;9100;48.700;9.316;2023-03-03T02:51:37;26.2;;;18.3;;
17949;SDS011;9100;48.700;9.316;2023-03-03T02:52:37;26.2;;;18.3;;
17949;SDS011;9100;48.700;9.316;2023-03-03T02:53:05;27.5;;;19.3;;
17949;SDS011;9100;48.700;9.316;2023-03-03T02:53:37;27.5;;;19.3;;
17949;SDS011;9100;48.700;9.316;2023-03-03T02:54:37;27.5;;;19.3;;
17949;SDS011;9100;48.700;9.316;2023-03-03T02:55:38;27.5;;;19.3;;
17949;SDS011;9100;48.700;9.316;2023-03-03T02:56:37;27.5;;;19.3;;
17949;SDS011;9100;48.700;9.316;2023-03-03T02:57:37;27.5;;;19.3;;
17949;SDS011;9100;48.700;9.316;2023-03-03T02:58:05;25.2;;;19;;
17949;SDS011;9100;48.700;9.316;2023-03-03T02:58:37;25.2;;;19;;
17949;SDS011;9100;48.700;9.316;2023-03-03T02:59:37;25.2;;;19;;
17949;SDS011;9100;48.700;9.316;2023-03-03T03:00:37;25.2;;;19;;
17949;SDS011;9100;48.700;9.316;2023-03-03T03:01:37;25.2;;;19;;
17949;SDS011;9100;48.700;9.316;2023-03-03T03:02:37;25.2;;;19;;
17949;SDS011;9100;48.700;9.316;2023-03-03T03:03:05;28.1;;;20.8;;
17949;SDS011;9100;48.700;9.316;2023-03-03T03:03:37;28.1;;;20.8;;
17949;SDS011;9100;48.700;9.316;2023-03-03T03:04:37;28.1;;;20.8;;
17949;SDS011;9100;48.700;9.316;2023-03-03T03:05:37;28.1;;;20.8;;
17949;SDS011;9100;48.700;9.316;2023-03-03T03:06:37;28.1;;;20.8;;
17949;SDS011;9100;48.700;9.316;2023-03-03T03:07:37;28.1;;;20.8;;
17949;SDS011;9100;48.700;9.316;2023-03-03T03:08:05;25.9;;;18.5;;
17949;SDS011;9100;48.700;9.316;2023-03-03T03:08:37;25.9;;;18.5;;
17949;SDS011;9100;48.700;9.316;2023-03-03T03:09:37;25.9;;;18.5;;
17949;SDS011;9100;48.700;9.316;2023-03-03T03:10:37;25.9;;;18.5;;
17949;SDS011;9100;48.700;9.316;2023-03-03T03:11:37;25.9;;;18.5;;
17949;SDS011;9100;48.700;9.316;2023-03-03T03:12:37;25.9;;;18.5;;
17949;SDS011;9100;48.700;9.316;2023-03-03T03:13:05;32.7;;;20.1;;
17949;SDS011;9100;48.700;9.316;2023-03-03T03:13:37;32.7;;;20.1;;
17949;SDS011;9100;48.700;9.316;2023-03-03T03:14:37;32.7;;;20.1;;
17949;SDS011;9100;48.700;9.316;2023-03-03T03:15:37;32.7;;;20.1;;
17949;SDS011;9100;48.700;9.316;2023-03-03T03:16:37;32.7;;;20.1;;
17949;SDS011;9100;48.700;9.316;2023-03-03T03:17:37;32.7;;;20.1;;
17949;SDS011;9100;48.700;9.316;2023-03-03T03:18:05;29;;;18.3;;
17949;SDS011;9100;48.700;9.316;2023-03-03T03:18:37;29;;;18.3;;
17949;SDS011;9100;48.700;9.316;2023-03-03T03:19:37;29;;;18.3;;
17949;SDS011;9100;48.700;9.316;2023-03-03T03:20:37;29;;;18.3;;
17949;SDS011;9100;48.700;9.316;2023-03-03T03:21:37;29;;;18.3;;
17949;SDS011;9100;48.700;9.316;2023-03-03T03:22:37;29;;;18.3;;
17949;SDS011;9100;48.700;9.316;2023-03-03T03:23:05;34;;;19.8;;
17949;SDS011;9100;48.700;9.316;2023-03-03T03:23:37;34;;;19.8;;
17949;SDS011;9100;48.700;9.316;2023-03-03T03:24:37;34;;;19.8;;
17949;SDS011;9100;48.700;9.316;2023-03-03T03:25:37;34;;;19.8;;
17949;SDS011;9100;48.700;9.316;2023-03-03T03:26:37;34;;;19.8;;
17949;SDS011;9100;48.700;9.316;2023-03-03T03:27:37;34;;;19.8;;
17949;SDS011;9100;48.700;9.316;2023-03-03T03:28:05;31.4;;;21.1;;
17949;SDS011;9100;48.700;9.316;2023-03-03T03:28:37;31.4;;;21.1;;
17949;SDS011;9100;48.700;9.316;2023-03-03T03:29:37;31.4;;;21.1;;
17949;SDS011;9100;48.700;9.316;2023-03-03T03:30:37;31.4;;;21.1;;
17949;SDS011;9100;48.700;9.316;2023-03-03T03:31:37;31.4;;;21.1;;
17949;SDS011;9100;48.700;9.316;2023-03-03T03:32:37;31.4;;;21.1;;
17949;SDS011;9100;48.700;9.316;2023-03-03T03:33:05;22.8;;;18.2;;
17949;SDS011;9100;48.700;9.316;2023-03-03T03:33:37;22.8;;;18.2;;
17949;SDS011;9100;48.700;9.316;2023-03-03T03:34:37;22.8;;;18.2;;
17949;SDS011;9100;48.700;9.316;2023-03-03T03:35:37;22.8;;;18.2;;
17949;SDS011;9100;48.700;9.316;2023-03-03T03:36:37;22.8;;;18.2;;
17949;SDS011;9100;48.700;9.316;2023-03-03T03:37:37;22.8;;;18.2;;
17949;SDS011;9100;48.700;9.316;2023-03-03T03:38:05;26.2;;;17.2;;
17949;SDS011;9100;48.700;9.316;2023-03-03T03:38:37;26.2;;;17.2;;
17949;SDS011;9100;48.700;9.316;2023-03-03T03:39:37;26.2;;;17.2;;
17949;SDS011;9100;48.700;9.316;2023-03-03T03:40:37;26.2;;;17.2;;
17949;SDS011;9100;48.700;9.316;2023-03-03T03:41:37;26.2;;;17.2;;
17949;SDS011;9100;48.700;9.316;2023-03-03T03:42:37;26.2;;;17.2;;
17949;SDS011;9100;48.700;9.316;2023-03-03T03:43:05;25.2;;;18.3;;
17949;SDS011;9100;48.700;9.316;2023-03-03T03:43:38;25.2;;;18.3;;
17949;SDS011;9100;48.700;9.316;2023-03-03T03:44:37;25.2;;;18.3;;
17949;SDS011;9100;48.700;9.316;2023-03-03T03:45:37;25.2;;;18.3;;
17949;SDS011;9100;48.700;9.316;2023-03-03T03:46:37;25.2;;;18.3;;
17949;SDS011;9100;48.700;9.316;2023-03-03T03:47:37;25.2;;;18.3;;
17949;SDS011;9100;48.700;9.316;2023-03-03T03:48:05;24.2;;;17.3;;
17949;SDS011;9100;48.700;9.316;2023-03-03T03:48:37;24.2;;;17.3;;
17949;SDS011;9100;48.700;9.316;2023-03-03T03:49:37;24.2;;;17.3;;
17949;SDS011;9100;48.700;9.316;2023-03-03T03:50:37;24.2;;;17.3;;
17949;SDS011;9100;48.700;9.316;2023-03-03T03:51:37;24.2;;;17.3;;
17949;SDS011;9100;48.700;9.316;2023-03-03T03:52:37;24.2;;;17.3;;
17949;SDS011;9100;48.700;9.316;2023-03-03T03:53:05;25.1;;;17.7;;
17949;SDS011;9100;48.700;9.316;2023-03-03T03:53:37;25.1;;;17.7;;
17949;SDS011;9100;48.700;9.316;2023-03-03T03:54:38;25.1;;;17.7;;
17949;SDS011;9100;48.700;9.316;2023-03-03T03:55:37;25.1;;;17.7;;
17949;SDS011;9100;48.700;9.316;2023-03-03T03:56:37;25.1;;;17.7;;
17949;SDS011;9100;48.700;9.316;2023-03-03T03:57:37;25.1;;;17.7;;
17949;SDS011;9100;48.700;9.316;2023-03-03T03:58:05;27.2;;;18.8;;
17949;SDS011;9100;48.700;9.316;2023-03-03T03:58:39;27.2;;;18.8;;
17949;SDS011;9100;48.700;9.316;2023-03-03T03:59:37;27.2;;;18.8;;
17949;SDS011;9100;48.700;9.316;2023-03-03T04:00:38;27.2;;;18.8;;
17949;SDS011;9100;48.700;9.316;2023-03-03T04:01:37;27.2;;;18.8;;
17949;SDS011;9100;48.700;9.316;2023-03-03T04:02:37;27.2;;;18.8;;
17949;SDS011;9100;48.700;9.316;2023-03-03T04:03:05;24.5;;;16.9;;
17949;SDS011;9100;48.700;9.316;2023-03-03T04:03:37;24.5;;;16.9;;
17949;SDS011;9100;48.700;9.316;2023-03-03T04:04:37;24.5;;;16.9;;
17949;SDS011;9100;48.700;9.316;2023-03-03T04:05:37;24.5;;;16.9;;
17949;SDS011;9100;48.700;9.316;2023-03-03T04:06:37;24.5;;;16.9;;
17949;SDS011;9100;48.700;9.316;2023-03-03T04:07:37;24.5;;;16.9;;
17949;SDS011;9100;48.700;9.316;2023-03-03T04:08:05;24.9;;;16.8;;
17949;SDS011;9100;48.700;9.316;2023-03-03T04:08:37;24.9;;;16.8;;
17949;SDS011;9100;48.700;9.316;2023-03-03T04:09:37;24.9;;;16.8;;
17949;SDS011;9100;48.700;9.316;2023-03-03T04:10:37;24.9;;;16.8;;
17949;SDS011;9100;48.700;9.316;2023-03-03T04:11:37;24.9;;;16.8;;
17949;SDS011;9100;48.700;9.316;2023-03-03T04:12:37;24.9;;;16.8;;
17949;SDS011;9100;48.700;9.316;2023-03-03T04:13:05;31.4;;;18.1;;
17949;SDS011;9100;48.700;9.316;2023-03-03T04:13:37;31.4;;;18.1;;
17949;SDS011;9100;48.700;9.316;2023-03-03T04:14:37;31.4;;;18.1;;
17949;SDS011;9100;48.700;9.316;2023-03-03T04:15:37;31.4;;;18.1;;
17949;SDS011;9100;48.700;9.316;2023-03-03T04:16:37;31.4;;;18.1;;
17949;SDS011;9100;48.700;9.316;2023-03-03T04:17:37;31.4;;;18.1;;
17949;SDS011;9100;48.700;9.316;2023-03-03T04:18:05;20.9;;;16.2;;
17949;SDS011;9100;48.700;9.316;2023-03-03T04:18:37;20.9;;;16.2;;
17949;SDS011;9100;48.700;9.316;2023-03-03T04:19:37;20.9;;;16.2;;
17949;SDS011;9100;48.700;9.316;2023-03-03T04:20:38;20.9;;;16.2;;
17949;SDS011;9100;48.700;9.316;2023-03-03T04:21:37;20.9;;;16.2;;
17949;SDS011;9100;48.700;9.316;2023-03-03T04:22:38;20.9;;;16.2;;
17949;SDS011;9100;48.700;9.316;2023-03-03T04:23:06;22.7;;;17.9;;
17949;SDS011;9100;48.700;9.316;2023-03-03T04:23:37;22.7;;;17.9;;
17949;SDS011;9100;48.700;9.316;2023-03-03T04:24:37;22.7;;;17.9;;
17949;SDS011;9100;48.700;9.316;2023-03-03T04:25:37;22.7;;;17.9;;
17949;SDS011;9100;48.700;9.316;2023-03-03T04:26:37;22.7;;;17.9;;
17949;SDS011;9100;48.700;9.316;2023-03-03T04:27:38;22.7;;;17.9;;
17949;SDS011;9100;48.700;9.316;2023-03-03T04:28:05;24.7;;;17.6;;
17949;SDS011;9100;48.700;9.316;2023-03-03T04:28:37;24.7;;;17.6;;
17949;SDS011;9100;48.700;9.316;2023-03-03T04:29:37;24.7;;;17.6;;
17949;SDS011;9100;48.700;9.316;2023-03-03T04:30:37;24.7;;;17.6;;
17949;SDS011;9100;48.700;9.316;2023-03-03T04:31:37;24.7;;;17.6;;
17949;SDS011;9100;48.700;9.316;2023-03-03T04:32:37;24.7;;;17.6;;
17949;SDS011;9100;48.700;9.316;2023-03-03T04:33:05;25.3;;;17.8;;
17949;SDS011;9100;48.700;9.316;2023-03-03T04:33:37;25.3;;;17.8;;
17949;SDS011;9100;48.700;9.316;2023-03-03T04:34:37;25.3;;;17.8;;
17949;SDS011;9100;48.700;9.316;2023-03-03T04:35:38;25.3;;;17.8;;
17949;SDS011;9100;48.700;9.316;2023-03-03T04:36:37;25.3;;;17.8;;
17949;SDS011;9100;48.700;9.316;2023-03-03T04:37:37;25.3;;;17.8;;
17949;SDS011;9100;48.700;9.316;2023-03-03T04:38:05;24.2;;;18.2;;
17949;SDS011;9100;48.700;9.316;2023-03-03T04:38:37;24.2;;;18.2;;
17949;SDS011;9100;48.700;9.316;2023-03-03T04:39:37;24.2;;;18.2;;
17949;SDS011;9100;48.700;9.316;2023-03-03T04:40:38;24.2;;;18.2;;
17949;SDS011;9100;48.700;9.316;2023-03-03T04:41:37;24.2;;;18.2;;
17949;SDS011;9100;48.700;9.316;2023-03-03T04:42:37;24.2;;;18.2;;
17949;SDS011;9100;48.700;9.316;2023-03-03T04:43:05;28;;;18.8;;
17949;SDS011;9100;48.700;9.316;2023-03-03T04:43:37;28;;;18.8;;
17949;SDS011;9100;48.700;9.316;2023-03-03T04:44:37;28;;;18.8;;
17949;SDS011;9100;48.700;9.316;2023-03-03T04:45:37;28;;;18.8;;
17949;SDS011;9100;48.700;9.316;2023-03-03T04:46:37;28;;;18.8;;
17949;SDS011;9100;48.700;9.316;2023-03-03T04:47:38;28;;;18.8;;
17949;SDS011;9100;48.700;9.316;2023-03-03T04:48:05;26.7;;;18.4;;
17949;SDS011;9100;48.700;9.316;2023-03-03T04:48:37;26.7;;;18.4;;
17949;SDS011;9100;48.700;9.316;2023-03-03T04:49:37;26.7;;;18.4;;
17949;SDS011;9100;48.700;9.316;2023-03-03T04:50:37;26.7;;;18.4;;
17949;SDS011;9100;48.700;9.316;2023-03-03T04:51:37;26.7;;;18.4;;
17949;SDS011;9100;48.700;9.316;2023-03-03T04:52:37;26.7;;;18.4;;
17949;SDS011;9100;48.700;9.316;2023-03-03T04:53:05;26.5;;;17.3;;
17949;SDS011;9100;48.700;9.316;2023-03-03T04:53:37;26.5;;;17.3;;
17949;SDS011;9100;48.700;9.316;2023-03-03T04:54:37;26.5;;;17.3;;
17949;SDS011;9100;48.700;9.316;2023-03-03T04:55:37;26.5;;;17.3;;
17949;SDS011;9100;48.700;9.316;2023-03-03T04:56:37;26.5;;;17.3;;
17949;SDS011;9100;48.700;9.316;2023-03-03T04:57:37;26.5;;;17.3;;
17949;SDS011;9100;48.700;9.316;2023-03-03T04:58:05;25.6;;;19.1;;
17949;SDS011;9100;48.700;9.316;2023-03-03T04:58:37;25.6;;;19.1;;
17949;SDS011;9100;48.700;9.316;2023-03-03T04:59:37;25.6;;;19.1;;
17949;SDS011;9100;48.700;9.316;2023-03-03T05:00:37;25.6;;;19.1;;
17949;SDS011;9100;48.700;9.316;2023-03-03T05:01:37;25.6;;;19.1;;
17949;SDS011;9100;48.700;9.316;2023-03-03T05:02:37;25.6;;;19.1;;
17949;SDS011;9100;48.700;9.316;2023-03-03T05:03:05;25.2;;;18.3;;
17949;SDS011;9100;48.700;9.316;2023-03-03T05:03:37;25.2;;;18.3;;
17949;SDS011;9100;48.700;9.316;2023-03-03T05:04:37;25.2;;;18.3;;
17949;SDS011;9100;48.700;9.316;2023-03-03T05:05:37;25.2;;;18.3;;
17949;SDS011;9100;48.700;9.316;2023-03-03T05:06:37;25.2;;;18.3;;
17949;SDS011;9100;48.700;9.316;2023-03-03T05:07:37;25.2;;;18.3;;